首页
METAR-TAF:

METAR-TAF

机场 :

凯奇凯梅特, 匈牙利

纬度: 46-55N, 经度: 019-45E, 海拔: 113米

当前天气观测

该预报发布于23分钟前的10:45 UTC
静风
温度 -1°C
湿度 100%
气压 1029 hPa
能見度: 1000
阴天层高于300英尺
小雪, 轻雾

METAR: LHKE 191045Z 00000KT 1000 -SN BR OVC003 M01/M01 Q1029 R12/790063 NOSIG RMK AMB

时间: 12:08 (11:08 UTC)

预报

该预报发布于2小时和53分钟前的08:15 UTC
预报有效从19日的 09点(UTC)到 19日的 18点(UTC)
风速3节,风向多变
能見度: 1500
阴天层高于500英尺
轻雾, (小) 冻, 毛毛雨
短暂存在
从 19日的 09点(UTC)到 19日的 11点(UTC)
能見度: 0800
阴天层高于300英尺
冻雾
短暂存在
从 19日的 11点(UTC)到 19日的 16点(UTC)
能見度: 3000
轻雾

TAF: LHKE 190815Z 1909/1918 VRB03KT 1500 BR -FZDZ OVC005 TEMPO 1909/1911 0800 FZFG OVC003 TEMPO 1911/1916 3000 BR

超过4000个机场的气象观测和天气预报(METAR&TAF报告)。

可查询的气象台以黄色和红色小点在地图上表示。

将鼠标移到小点上方,可查看气象台名称。

然后点击查看天气观测和预报。

如需切换地图:点击带黑十字的绿色按钮放大地图;点击带横线的绿色按钮缩小地图;或者点击绿色箭头查看邻近地区的地图。


METAR-TAF: